Time;durP1;ratioP1;P1;durP2;ratioP2;P2;SDS_P1;SDS_P2;PMS_P1;PMS_P2;Temp;Humidity;BMP_temperature;BMP_pressure;BME280_temperature;BME280_humidity;BME280_pressure;Samples;Min_cycle;Max_cycle;Signal;HPM_P1;HPM_P2
2022/08/14 00:00:06;;;;;;;8.60;6.60;;;21.30;97.40;;;;;;5116076;28;20031;-79
2022/08/14 00:02:32;;;;;;;11.10;6.93;;;21.30;97.20;;;;;;5092919;28;20079;-79
2022/08/14 00:04:58;;;;;;;7.50;5.78;;;21.30;96.80;;;;;;5095617;28;20072;-79
2022/08/14 00:07:23;;;;;;;7.95;5.97;;;21.30;96.60;;;;;;5109754;28;20032;-79
2022/08/14 00:09:49;;;;;;;9.10;6.65;;;21.30;96.10;;;;;;5095402;28;20043;-79
2022/08/14 00:12:15;;;;;;;8.38;6.93;;;21.30;96.50;;;;;;5061758;28;20121;-79
2022/08/14 00:14:41;;;;;;;8.57;7.07;;;21.30;96.90;;;;;;5087403;28;20401;-79
2022/08/14 00:17:06;;;;;;;7.60;6.10;;;21.20;96.90;;;;;;5080888;28;20040;-79
2022/08/14 00:19:32;;;;;;;9.15;6.40;;;21.30;96.60;;;;;;5084636;28;20046;-79
2022/08/14 00:21:58;;;;;;;8.07;5.60;;;21.30;96.20;;;;;;5098629;28;20039;-79
2022/08/14 00:24:24;;;;;;;7.60;6.20;;;21.20;96.00;;;;;;5084690;28;20505;-79
2022/08/14 00:26:50;;;;;;;8.15;6.55;;;21.20;95.90;;;;;;5078693;28;20080;-79
2022/08/14 00:29:16;;;;;;;11.52;7.78;;;21.20;96.30;;;;;;5092446;28;20039;-79
2022/08/14 00:31:42;;;;;;;8.98;7.20;;;21.20;96.90;;;;;;5078245;28;20032;-79
2022/08/14 00:34:07;;;;;;;10.07;7.70;;;21.10;97.50;;;;;;5074547;28;20092;-79
2022/08/14 00:36:33;;;;;;;9.43;7.00;;;21.10;97.40;;;;;;5109817;28;20100;-79
2022/08/14 00:38:59;;;;;;;7.32;6.30;;;21.00;97.80;;;;;;5103979;28;20027;-79
2022/08/14 00:41:30;;;;;;;7.95;6.03;;;21.00;97.70;;;;;;5064779;28;20501;-79
2022/08/14 00:43:56;;;;;;;9.05;6.88;;;20.90;97.40;;;;;;5114579;28;20044;-79
2022/08/14 00:46:22;;;;;;;9.40;6.97;;;20.90;97.70;;;;;;5101506;28;20054;-79
2022/08/14 00:48:48;;;;;;;8.88;7.20;;;20.90;98.10;;;;;;5077975;28;20040;-79
2022/08/14 00:51:14;;;;;;;9.43;7.53;;;20.80;98.40;;;;;;5076837;28;20047;-79
2022/08/14 00:53:41;;;;;;;9.50;7.30;;;20.80;98.80;;;;;;5091342;28;20051;-79
2022/08/14 00:56:07;;;;;;;8.98;7.47;;;20.80;98.90;;;;;;5089512;28;20118;-79
2022/08/14 00:58:35;;;;;;;9.68;7.45;;;20.80;98.80;;;;;;5080248;28;20048;-78
2022/08/14 01:01:10;;;;;;;10.25;7.43;;;20.80;99.00;;;;;;5051248;28;20047;-78
2022/08/14 01:03:38;;;;;;;9.32;7.60;;;20.70;99.00;;;;;;5111716;28;20071;-78
2022/08/14 01:06:10;;;;;;;10.20;8.10;;;20.70;99.20;;;;;;5105189;28;20119;-78
2022/08/14 01:08:37;;;;;;;;;;;20.70;99.20;;;;;;5092178;28;20047;-78
2022/08/14 01:11:04;;;;;;;10.02;8.10;;;20.70;99.90;;;;;;5094443;28;20006;-78
2022/08/14 01:13:38;;;;;;;11.00;8.32;;;20.70;99.50;;;;;;5094470;28;20139;-78
2022/08/14 01:16:10;;;;;;;10.40;9.23;;;20.60;99.90;;;;;;5085200;28;20039;-78
2022/08/14 01:21:31;;;;;;;9.45;8.45;;;20.50;99.90;;;;;;5094115;28;20040;-78
2022/08/14 01:23:57;;;;;;;9.98;8.90;;;20.50;99.90;;;;;;5077262;28;20505;-79
2022/08/14 01:26:24;;;;;;;11.98;9.20;;;20.40;99.90;;;;;;5094107;28;20127;-79
2022/08/14 01:28:56;;;;;;;11.35;10.20;;;20.40;99.90;;;;;;5077619;28;20483;-79
2022/08/14 01:31:23;;;;;;;;;;;20.40;99.90;;;;;;5094217;28;20040;-79
2022/08/14 01:33:52;;;;;;;10.00;8.73;;;20.40;99.90;;;;;;5076882;28;19923;-79
2022/08/14 01:36:22;;;;;;;10.65;8.57;;;20.30;99.90;;;;;;5090908;28;20522;-78
2022/08/14 01:38:50;;;;;;;10.52;9.43;;;20.30;99.90;;;;;;5094202;28;20071;-78
2022/08/14 01:41:19;;;;;;;10.05;8.10;;;20.30;99.90;;;;;;5088981;28;20395;-79
2022/08/14 01:44:03;;;;;;;10.90;9.38;;;20.20;99.90;;;;;;5094066;28;20035;-79
2022/08/14 01:46:34;;;;;;;10.07;8.32;;;20.20;99.90;;;;;;5093983;28;20553;-79
2022/08/14 01:49:03;;;;;;;9.32;8.32;;;20.20;99.90;;;;;;5091176;28;20508;-79
2022/08/14 01:51:31;;;;;;;11.00;8.45;;;20.20;99.90;;;;;;5113946;28;20047;-79
2022/08/14 01:53:59;;;;;;;10.23;8.25;;;20.20;99.90;;;;;;5100733;28;20051;-78
2022/08/14 01:56:37;;;;;;;9.55;8.23;;;20.20;99.90;;;;;;5076540;28;20044;-78
2022/08/14 01:59:31;;;;;;;11.35;8.90;;;20.10;99.90;;;;;;5076973;28;20105;-78
2022/08/14 02:02:02;;;;;;;10.98;9.23;;;20.10;99.90;;;;;;5102464;28;20047;-78
2022/08/14 02:04:33;;;;;;;12.65;8.38;;;20.10;99.90;;;;;;5094419;28;20482;-78
2022/08/14 02:06:59;;;;;;;10.75;8.07;;;20.00;99.90;;;;;;5082511;28;20217;-78
2022/08/14 02:09:26;;;;;;;12.10;9.00;;;20.00;99.90;;;;;;5083966;28;20079;-78
2022/08/14 02:11:52;;;;;;;12.10;9.30;;;20.00;99.90;;;;;;5081396;28;20539;-78
2022/08/14 02:14:18;;;;;;;12.02;8.20;;;20.00;99.90;;;;;;5102703;28;20040;-78
2022/08/14 02:16:51;;;;;;;10.05;7.20;;;19.90;99.90;;;;;;5105495;28;20046;-78
2022/08/14 02:19:25;;;;;;;9.82;8.15;;;19.90;99.90;;;;;;5102925;28;20039;-78
2022/08/14 02:21:54;;;;;;;10.20;9.13;;;19.90;99.90;;;;;;5094276;28;20120;-78
2022/08/14 02:24:23;;;;;;;12.10;9.93;;;19.90;99.90;;;;;;5092899;28;20052;-79
2022/08/14 02:26:50;;;;;;;12.18;9.35;;;19.90;99.90;;;;;;5092803;28;20050;-78
2022/08/14 02:29:21;;;;;;;10.07;9.07;;;19.90;99.90;;;;;;5059401;28;20051;-78
2022/08/14 02:31:52;;;;;;;11.38;9.60;;;19.90;99.90;;;;;;5086134;28;20035;-78
2022/08/14 02:34:21;;;;;;;9.70;8.52;;;19.80;99.90;;;;;;5112852;28;20035;-78
2022/08/14 02:36:51;;;;;;;9.25;7.53;;;19.80;99.90;;;;;;5103550;28;20082;-78
2022/08/14 02:39:17;;;;;;;9.25;7.25;;;19.80;99.90;;;;;;5078584;28;20470;-78
2022/08/14 02:41:43;;;;;;;10.38;8.70;;;19.80;99.90;;;;;;5084951;28;20032;-78
2022/08/14 02:44:10;;;;;;;9.63;7.72;;;19.80;99.90;;;;;;5075739;28;20479;-78
2022/08/14 02:46:43;;;;;;;10.38;7.95;;;19.70;99.90;;;;;;5075290;28;20078;-79
2022/08/14 02:49:09;;;;;;;8.73;7.18;;;19.80;99.90;;;;;;5090128;28;20043;-79
2022/08/14 02:51:36;;;;;;;9.23;7.43;;;19.80;99.90;;;;;;5075505;28;20036;-78
2022/08/14 02:54:04;;;;;;;9.15;7.45;;;19.80;99.90;;;;;;5075484;28;20039;-79
2022/08/14 02:56:29;;;;;;;8.48;7.47;;;19.80;99.90;;;;;;5080681;28;20040;-79
2022/08/14 02:58:56;;;;;;;10.10;8.25;;;19.80;99.90;;;;;;5084760;28;20040;-78
2022/08/14 03:01:23;;;;;;;10.82;9.73;;;19.80;99.90;;;;;;5072863;28;20126;-78
2022/08/14 03:03:50;;;;;;;11.18;10.02;;;19.80;99.90;;;;;;5068564;28;20043;-78
2022/08/14 03:06:19;;;;;;;11.63;10.38;;;19.70;99.90;;;;;;5063181;28;20119;-78
2022/08/14 03:08:47;;;;;;;10.57;9.35;;;19.70;99.90;;;;;;5075150;28;20024;-78
2022/08/14 03:11:13;;;;;;;12.13;9.50;;;19.60;99.90;;;;;;5075731;28;20482;-79
2022/08/14 03:13:46;;;;;;;11.32;9.40;;;19.60;99.90;;;;;;5089339;28;20060;-78
2022/08/14 03:16:17;;;;;;;10.50;8.75;;;19.60;99.90;;;;;;5091813;28;20051;-78
2022/08/14 03:18:45;;;;;;;12.73;11.02;;;19.50;99.90;;;;;;5106227;28;20032;-78
2022/08/14 03:21:15;;;;;;;10.80;9.30;;;19.50;99.90;;;;;;5075443;28;20050;-78
2022/08/14 03:23:43;;;;;;;10.63;8.63;;;19.40;99.90;;;;;;5091972;28;20032;-78
2022/08/14 03:26:11;;;;;;;9.70;8.48;;;19.40;99.90;;;;;;5074739;28;20079;-78
2022/08/14 03:28:41;;;;;;;11.32;10.00;;;19.40;99.90;;;;;;5087764;28;20047;-78
2022/08/14 03:31:08;;;;;;;12.60;9.68;;;19.40;99.90;;;;;;5097735;28;20100;-78
2022/08/14 03:33:39;;;;;;;10.70;9.48;;;19.40;99.90;;;;;;5112204;28;20040;-78
2022/08/14 03:36:15;;;;;;;14.00;10.18;;;19.40;99.90;;;;;;5097732;28;20108;-78
2022/08/14 03:38:42;;;;;;;11.73;10.15;;;19.40;99.90;;;;;;5084616;28;20047;-78
2022/08/14 03:41:13;;;;;;;11.65;10.45;;;19.40;99.90;;;;;;5094600;28;20027;-78
2022/08/14 03:43:43;;;;;;;10.80;9.13;;;19.40;99.90;;;;;;5112268;28;20062;-78
2022/08/14 03:46:12;;;;;;;11.57;10.38;;;19.40;99.90;;;;;;5110194;28;20050;-78
2022/08/14 03:48:40;;;;;;;11.20;8.75;;;19.40;99.90;;;;;;5105134;28;20122;-78
2022/08/14 03:51:07;;;;;;;11.02;9.00;;;19.40;99.90;;;;;;5111971;28;20039;-78
2022/08/14 03:53:37;;;;;;;12.68;11.23;;;19.40;99.90;;;;;;5100457;28;20090;-78
2022/08/14 03:56:04;;;;;;;9.15;8.18;;;19.40;99.90;;;;;;5095564;28;20122;-78
2022/08/14 03:58:31;;;;;;;11.77;10.57;;;19.40;99.90;;;;;;5084921;28;20036;-78
2022/08/14 04:01:01;;;;;;;11.35;10.20;;;19.40;99.90;;;;;;5088872;28;20040;-78
2022/08/14 04:03:27;;;;;;;12.23;11.02;;;19.40;99.90;;;;;;5042001;28;20040;-78
2022/08/14 04:05:53;;;;;;;12.73;10.35;;;19.40;99.90;;;;;;5089465;28;20125;-78
2022/08/14 04:08:19;;;;;;;9.80;8.80;;;19.40;99.90;;;;;;5088278;28;20047;-78
2022/08/14 04:10:46;;;;;;;15.02;11.07;;;19.30;99.90;;;;;;5084775;28;20062;-78
2022/08/14 04:13:17;;;;;;;13.60;12.20;;;19.30;99.90;;;;;;5074660;28;20047;-78
2022/08/14 04:15:47;;;;;;;11.32;9.98;;;19.30;99.90;;;;;;5070663;28;20086;-78
2022/08/14 04:18:13;;;;;;;10.50;9.40;;;19.20;99.90;;;;;;5107398;28;20123;-78
2022/08/14 04:20:41;;;;;;;10.68;8.98;;;19.20;99.90;;;;;;5101565;28;20032;-78
2022/08/14 04:23:08;;;;;;;9.60;7.72;;;19.20;99.90;;;;;;5094510;28;20192;-78
2022/08/14 04:25:36;;;;;;;9.13;7.70;;;19.20;99.90;;;;;;5105350;28;20124;-78
2022/08/14 04:28:06;;;;;;;11.45;10.25;;;19.20;99.90;;;;;;5098821;28;20188;-78
2022/08/14 04:30:37;;;;;;;11.25;10.15;;;19.20;99.90;;;;;;5078034;28;20048;-78
2022/08/14 04:33:07;;;;;;;11.63;10.43;;;19.20;99.90;;;;;;5079290;28;20066;-78
2022/08/14 04:35:37;;;;;;;14.38;12.68;;;19.30;99.90;;;;;;5094757;28;20032;-79
2022/08/14 04:43:37;;;;;;;13.25;11.93;;;19.20;99.90;;;;;;5104227;28;20142;-78
2022/08/14 04:46:13;;;;;;;10.43;9.27;;;19.20;99.90;;;;;;5084110;28;20040;-78
2022/08/14 04:48:39;;;;;;;11.57;10.38;;;19.20;99.90;;;;;;5102087;28;20089;-78
2022/08/14 04:51:08;;;;;;;12.35;11.07;;;19.20;99.90;;;;;;5082549;28;20054;-78
2022/08/14 04:53:36;;;;;;;9.27;8.38;;;19.30;99.90;;;;;;5115088;28;20067;-78
2022/08/14 04:56:04;;;;;;;10.07;8.82;;;19.30;99.90;;;;;;5077649;28;20040;-78
2022/08/14 04:58:31;;;;;;;12.25;10.60;;;19.30;99.90;;;;;;5094568;28;20119;-78
2022/08/14 05:00:57;;;;;;;10.80;9.00;;;19.30;99.90;;;;;;5077569;28;20040;-78
2022/08/14 05:03:26;;;;;;;11.80;10.43;;;19.40;99.90;;;;;;5094837;28;20054;-78
2022/08/14 05:05:54;;;;;;;9.68;8.20;;;19.40;99.90;;;;;;5108502;28;20172;-79
2022/08/14 05:08:20;;;;;;;8.63;7.68;;;19.30;99.90;;;;;;5077751;28;20062;-78
2022/08/14 05:10:52;;;;;;;11.98;10.50;;;19.40;99.90;;;;;;5070344;28;20041;-78
2022/08/14 05:13:23;;;;;;;12.00;10.70;;;19.40;99.90;;;;;;5083552;28;20563;-78
2022/08/14 05:15:51;;;;;;;14.13;10.73;;;19.50;99.90;;;;;;5084976;28;20444;-78
2022/08/14 05:18:23;;;;;;;14.32;11.65;;;19.50;99.90;;;;;;5077475;28;20073;-78
2022/08/14 05:20:51;;;;;;;9.65;7.88;;;19.50;99.90;;;;;;5094268;28;20567;-78
2022/08/14 05:23:19;;;;;;;12.55;11.35;;;19.50;99.90;;;;;;5091365;28;20032;-78
2022/08/14 05:25:47;;;;;;;14.43;12.98;;;19.50;99.90;;;;;;5091316;28;20517;-78
2022/08/14 05:28:22;;;;;;;12.02;9.98;;;19.60;99.90;;;;;;5102851;28;20090;-78
2022/08/14 05:30:56;;;;;;;13.50;12.20;;;19.60;99.90;;;;;;5083064;28;20048;-78
2022/08/14 05:33:25;;;;;;;13.52;12.13;;;19.60;99.90;;;;;;5088121;28;20036;-78
2022/08/14 05:35:52;;;;;;;14.48;12.98;;;19.60;99.90;;;;;;5096458;28;20040;-78
2022/08/14 05:38:21;;;;;;;14.30;12.90;;;19.70;99.90;;;;;;5068346;28;20043;-78
2022/08/14 05:40:48;;;;;;;13.98;12.57;;;19.80;99.90;;;;;;5082522;28;20040;-78
2022/08/14 05:43:14;;;;;;;13.85;12.02;;;20.10;99.90;;;;;;5090854;28;20149;-78
2022/08/14 05:45:41;;;;;;;14.93;13.40;;;20.50;99.90;;;;;;5082251;28;20040;-78
2022/08/14 05:48:11;;;;;;;13.75;11.60;;;21.00;99.90;;;;;;5084371;28;20040;-78
2022/08/14 05:50:37;;;;;;;14.50;11.48;;;21.70;99.90;;;;;;5087468;28;20046;-78
2022/08/14 05:53:03;;;;;;;13.85;12.40;;;22.40;99.90;;;;;;5087660;28;20039;-78
2022/08/14 05:55:29;;;;;;;14.80;13.20;;;22.90;99.90;;;;;;5085430;28;20032;-78
2022/08/14 05:58:02;;;;;;;14.35;11.93;;;22.90;99.90;;;;;;5103113;28;20036;-78
2022/08/14 06:00:35;;;;;;;12.82;11.43;;;23.50;99.90;;;;;;5096076;28;20043;-78
2022/08/14 06:03:04;;;;;;;12.70;11.15;;;23.90;98.80;;;;;;5088640;28;20058;-78
2022/08/14 06:05:30;;;;;;;13.77;12.38;;;24.40;98.70;;;;;;5090554;28;20035;-78
2022/08/14 06:08:00;;;;;;;14.77;12.27;;;24.90;96.90;;;;;;5092728;28;20066;-78
2022/08/14 06:10:29;;;;;;;12.20;11.00;;;24.90;95.80;;;;;;5084463;28;20119;-78
2022/08/14 06:13:02;;;;;;;13.93;12.45;;;25.10;96.80;;;;;;5069417;28;20062;-78
2022/08/14 06:15:28;;;;;;;11.63;10.43;;;24.90;95.60;;;;;;5073273;28;20039;-78
2022/08/14 06:17:56;;;;;;;12.27;10.75;;;25.30;95.50;;;;;;5083438;28;20558;-78
2022/08/14 06:20:23;;;;;;;12.77;11.02;;;25.80;94.50;;;;;;5111559;28;20094;-78
2022/08/14 06:22:49;;;;;;;12.90;11.32;;;26.20;93.80;;;;;;5100169;28;20040;-78
2022/08/14 06:25:15;;;;;;;11.35;9.68;;;25.90;92.70;;;;;;5107497;28;20051;-78
2022/08/14 06:27:46;;;;;;;13.63;10.40;;;26.30;93.20;;;;;;5110380;28;20044;-79
2022/08/14 06:30:14;;;;;;;11.97;10.27;;;26.20;91.90;;;;;;5080124;28;20048;-79
2022/08/14 06:32:40;;;;;;;11.55;10.32;;;26.40;91.60;;;;;;5082432;28;20120;-78
2022/08/14 06:35:07;;;;;;;12.82;11.43;;;26.00;92.40;;;;;;5104159;28;20040;-78
2022/08/14 06:37:40;;;;;;;11.95;10.35;;;26.10;92.00;;;;;;5094174;28;20044;-79
2022/08/14 06:40:07;;;;;;;12.25;10.05;;;26.70;92.20;;;;;;5087028;28;20040;-79
2022/08/14 06:42:33;;;;;;;11.07;9.98;;;27.30;91.70;;;;;;5075527;28;20032;-79
2022/08/14 06:45:00;;;;;;;10.80;9.27;;;28.00;90.60;;;;;;5078052;28;20039;-79
2022/08/14 06:47:26;;;;;;;13.55;10.32;;;28.00;88.70;;;;;;5062359;28;20066;-79
2022/08/14 06:49:52;;;;;;;10.32;8.68;;;28.00;86.80;;;;;;5074993;28;20097;-79
2022/08/14 06:52:17;;;;;;;11.30;8.88;;;28.50;86.40;;;;;;5081739;28;20491;-78
2022/08/14 06:54:44;;;;;;;11.32;9.32;;;28.20;84.40;;;;;;5069834;28;20031;-79
2022/08/14 06:57:10;;;;;;;12.50;9.63;;;28.20;83.50;;;;;;5092502;28;20119;-79
2022/08/14 06:59:35;;;;;;;9.38;7.93;;;27.80;82.80;;;;;;5086367;28;20566;-79
2022/08/14 07:07:37;;;;;;;9.82;8.40;;;28.50;84.00;;;;;;5095772;28;20146;-79
2022/08/14 07:10:04;;;;;;;10.07;7.70;;;28.40;82.10;;;;;;5081813;28;20072;-79
2022/08/14 07:12:30;;;;;;;10.27;7.10;;;28.70;81.60;;;;;;5080307;28;20108;-79
2022/08/14 07:14:55;;;;;;;9.20;7.32;;;29.20;80.50;;;;;;5091416;28;20119;-79
2022/08/14 07:17:21;;;;;;;10.52;7.82;;;29.10;78.90;;;;;;5074655;28;20444;-79
2022/08/14 07:19:47;;;;;;;10.73;7.55;;;29.30;77.40;;;;;;5072160;28;20043;-79
2022/08/14 07:22:12;;;;;;;9.73;6.68;;;28.80;76.30;;;;;;5077289;28;20039;-79
2022/08/14 07:24:38;;;;;;;9.43;6.97;;;28.40;78.30;;;;;;5079615;28;20052;-79
2022/08/14 07:27:04;;;;;;;8.90;6.40;;;28.80;76.00;;;;;;5080494;28;20036;-79
2022/08/14 07:29:30;;;;;;;7.93;6.30;;;29.10;76.00;;;;;;5083333;28;20051;-79
2022/08/14 07:31:55;;;;;;;9.07;6.43;;;29.60;74.30;;;;;;5086200;28;20036;-79
2022/08/14 07:34:22;;;;;;;7.68;5.72;;;29.80;72.30;;;;;;5085127;28;20046;-79
2022/08/14 07:36:47;;;;;;;7.63;6.57;;;29.70;72.10;;;;;;5080919;28;20036;-79
2022/08/14 07:39:13;;;;;;;8.07;5.57;;;29.40;71.40;;;;;;5091208;28;20036;-79
2022/08/14 07:41:39;;;;;;;8.60;6.05;;;29.30;72.60;;;;;;5078550;28;20024;-79
2022/08/14 07:44:05;;;;;;;8.57;6.43;;;29.40;72.00;;;;;;5080563;28;20040;-79
2022/08/14 07:46:30;;;;;;;7.82;6.10;;;28.70;72.00;;;;;;5082975;28;20040;-79
2022/08/14 07:48:57;;;;;;;9.45;6.07;;;29.20;71.80;;;;;;5089886;28;20043;-79
2022/08/14 07:51:23;;;;;;;8.30;6.05;;;29.10;71.30;;;;;;5091079;28;20036;-79
2022/08/14 07:53:49;;;;;;;11.73;6.18;;;29.50;71.40;;;;;;5074468;28;20035;-79
2022/08/14 07:56:16;;;;;;;8.75;5.72;;;29.20;71.60;;;;;;5084606;28;20035;-79
2022/08/14 07:58:42;;;;;;;7.72;5.55;;;28.90;71.70;;;;;;5099721;28;20044;-79
2022/08/14 08:01:10;;;;;;;8.52;5.82;;;29.60;71.40;;;;;;5085411;28;20501;-79
2022/08/14 08:03:39;;;;;;;8.27;5.60;;;29.80;69.00;;;;;;5087908;28;20040;-79
2022/08/14 08:06:06;;;;;;;9.73;5.72;;;29.90;67.50;;;;;;5088829;28;20101;-79
2022/08/14 08:08:31;;;;;;;8.88;5.80;;;29.90;67.60;;;;;;5082432;28;20043;-79
2022/08/14 08:10:59;;;;;;;7.40;5.15;;;30.00;67.00;;;;;;5078497;28;20067;-79
2022/08/14 08:13:27;;;;;;;7.80;5.50;;;29.90;67.00;;;;;;5098375;28;20046;-79
2022/08/14 08:15:56;;;;;;;8.85;5.40;;;30.10;66.90;;;;;;5115730;28;20050;-79
2022/08/14 08:18:23;;;;;;;6.50;5.20;;;30.20;65.00;;;;;;5092859;28;20035;-79
2022/08/14 08:20:51;;;;;;;8.88;5.20;;;30.00;66.60;;;;;;5085731;28;20063;-79
2022/08/14 08:23:19;;;;;;;7.20;5.60;;;29.90;65.60;;;;;;5085454;28;20122;-79
2022/08/14 08:25:47;;;;;;;8.13;5.22;;;29.80;65.70;;;;;;5051317;28;20048;-79
2022/08/14 08:28:19;;;;;;;7.03;5.32;;;30.10;66.20;;;;;;5084239;28;20118;-79
2022/08/14 08:30:57;;;;;;;6.80;5.18;;;30.40;65.20;;;;;;5098130;28;20559;-79
2022/08/14 08:33:26;;;;;;;8.23;5.78;;;30.20;64.50;;;;;;5103656;28;20040;-79
2022/08/14 08:35:53;;;;;;;7.85;5.60;;;30.40;63.80;;;;;;5081503;28;20040;-79
2022/08/14 08:38:24;;;;;;;8.60;5.30;;;30.30;63.20;;;;;;5105333;28;20044;-79
2022/08/14 08:40:51;;;;;;;8.80;5.50;;;30.50;62.60;;;;;;5097760;28;20544;-79
2022/08/14 08:43:21;;;;;;;9.20;5.20;;;30.50;63.20;;;;;;5087977;28;20073;-79
2022/08/14 08:45:57;;;;;;;8.37;5.30;;;30.40;61.80;;;;;;5088586;28;20088;-79
2022/08/14 08:48:29;;;;;;;7.22;4.93;;;29.90;62.60;;;;;;5085694;28;20036;-79
2022/08/14 08:51:01;;;;;;;8.15;5.20;;;29.90;62.80;;;;;;5089793;28;20042;-79
2022/08/14 08:53:31;;;;;;;;;;;30.20;61.80;;;;;;5105549;28;20052;-79
2022/08/14 08:55:57;;;;;;;6.75;4.97;;;30.20;62.10;;;;;;5087269;28;19927;-79
2022/08/14 08:58:24;;;;;;;6.90;5.10;;;30.30;62.40;;;;;;5066484;28;20043;-79
2022/08/14 09:00:52;;;;;;;7.07;5.07;;;30.30;62.20;;;;;;5070562;28;20038;-79
2022/08/14 09:03:24;;;;;;;6.75;4.85;;;30.40;62.80;;;;;;5097690;28;20040;-79
2022/08/14 09:05:55;;;;;;;5.97;4.65;;;30.60;62.10;;;;;;5095113;28;20044;-79
2022/08/14 09:08:24;;;;;;;6.35;5.00;;;30.70;61.30;;;;;;5093971;28;20082;-79
2022/08/14 09:10:51;;;;;;;8.20;4.53;;;30.50;59.80;;;;;;5076706;28;20074;-79
2022/08/14 09:13:18;;;;;;;8.73;5.03;;;30.60;61.10;;;;;;5093766;28;20036;-79
2022/08/14 09:15:46;;;;;;;6.53;4.60;;;30.40;60.60;;;;;;5093825;28;20036;-79
2022/08/14 09:18:15;;;;;;;8.35;4.95;;;30.50;59.50;;;;;;5104552;28;20510;-79
2022/08/14 09:20:42;;;;;;;6.05;4.75;;;30.60;60.30;;;;;;5093561;28;20036;-79
2022/08/14 09:23:10;;;;;;;7.22;5.15;;;30.80;59.10;;;;;;5093734;28;20568;-80
2022/08/14 09:25:37;;;;;;;9.70;5.13;;;30.80;59.80;;;;;;5094272;28;20066;-80
2022/08/14 09:28:04;;;;;;;7.43;5.05;;;30.90;59.50;;;;;;5064862;28;20491;-80
2022/08/14 09:30:40;;;;;;;6.40;5.15;;;30.80;59.10;;;;;;5090917;28;20051;-80
2022/08/14 09:33:43;;;;;;;6.15;5.00;;;30.90;59.30;;;;;;5094408;28;20495;-80
2022/08/14 09:36:33;;;;;;;6.97;5.00;;;31.10;59.80;;;;;;5080731;28;20039;-80
2022/08/14 09:39:16;;;;;;;7.25;5.55;;;31.20;58.20;;;;;;5101141;28;20483;-80
2022/08/14 09:42:03;;;;;;;7.47;5.45;;;31.20;58.70;;;;;;5094205;28;20490;-80
2022/08/14 09:44:42;;;;;;;6.88;5.40;;;31.20;57.30;;;;;;5079461;28;20028;-80
2022/08/14 09:47:09;;;;;;;9.82;5.40;;;31.20;58.00;;;;;;5113696;28;20096;-80
2022/08/14 09:49:38;;;;;;;8.45;5.75;;;31.20;58.50;;;;;;5083199;28;20039;-80
2022/08/14 09:52:07;;;;;;;7.43;5.68;;;31.40;57.10;;;;;;5067606;28;20193;-80
2022/08/14 09:54:41;;;;;;;7.07;5.25;;;31.20;57.80;;;;;;5082127;28;20039;-80
2022/08/14 09:57:09;;;;;;;7.72;5.70;;;31.30;57.90;;;;;;5084033;28;20048;-80
2022/08/14 09:59:45;;;;;;;7.07;5.65;;;31.50;56.90;;;;;;5081579;28;20424;-80
2022/08/14 10:02:30;;;;;;;6.70;5.35;;;31.70;56.70;;;;;;5084439;28;20063;-80
2022/08/14 10:05:00;;;;;;;7.50;5.50;;;31.70;55.50;;;;;;5100403;28;20040;-80
2022/08/14 10:07:34;;;;;;;7.38;5.38;;;31.70;56.10;;;;;;5082743;28;20048;-80
2022/08/14 10:10:01;;;;;;;7.80;5.80;;;31.90;56.60;;;;;;5077298;28;20043;-80
2022/08/14 10:12:49;;;;;;;7.35;5.70;;;32.00;55.60;;;;;;5086177;28;20086;-79
2022/08/14 10:15:20;;;;;;;7.68;5.95;;;31.70;55.30;;;;;;5095311;28;20044;-80
2022/08/14 10:17:52;;;;;;;7.38;5.60;;;31.70;54.90;;;;;;5098837;28;20040;-80
2022/08/14 10:20:21;;;;;;;7.10;5.35;;;31.70;54.60;;;;;;5097133;28;20435;-80
2022/08/14 10:22:48;;;;;;;7.25;4.82;;;31.60;54.60;;;;;;5105808;28;20596;-80
2022/08/14 10:25:16;;;;;;;8.05;5.47;;;31.80;54.30;;;;;;5072736;28;20048;-80
2022/08/14 10:27:48;;;;;;;7.00;5.30;;;31.80;54.40;;;;;;5076526;28;20046;-80
2022/08/14 10:30:20;;;;;;;6.97;5.15;;;31.70;55.10;;;;;;5100652;28;20044;-80
2022/08/14 10:32:47;;;;;;;7.00;5.30;;;32.00;54.30;;;;;;5080610;28;20028;-80
2022/08/14 10:35:14;;;;;;;6.22;5.10;;;32.20;53.10;;;;;;5077752;28;20075;-79
2022/08/14 10:37:49;;;;;;;6.47;5.18;;;32.20;52.30;;;;;;5065427;28;20089;-79
2022/08/14 10:40:26;;;;;;;6.53;5.30;;;32.20;52.60;;;;;;5086594;28;20541;-79
2022/08/14 10:42:52;;;;;;;7.63;5.30;;;32.30;54.00;;;;;;5092379;28;20039;-80
2022/08/14 10:45:33;;;;;;;7.32;5.40;;;32.30;53.10;;;;;;5093899;28;20043;-80
2022/08/14 10:48:00;;;;;;;8.07;5.47;;;32.40;53.30;;;;;;5093939;28;20028;-80
2022/08/14 10:50:34;;;;;;;7.30;5.03;;;32.70;53.20;;;;;;5094982;28;20075;-80
2022/08/14 10:53:04;;;;;;;6.65;5.32;;;32.90;51.90;;;;;;5099260;28;20039;-80
2022/08/14 10:55:38;;;;;;;7.22;5.70;;;32.90;51.90;;;;;;5082443;28;20048;-80
2022/08/14 10:58:11;;;;;;;7.20;5.20;;;32.00;51.30;;;;;;5081630;28;20115;-80
2022/08/14 11:00:52;;;;;;;8.05;5.75;;;32.40;52.20;;;;;;5088979;28;20058;-80
2022/08/14 11:03:18;;;;;;;14.00;5.88;;;32.30;51.40;;;;;;5095910;28;20088;-80
2022/08/14 11:05:46;;;;;;;8.95;5.55;;;32.20;52.30;;;;;;5095643;28;20123;-79
2022/08/14 11:08:15;;;;;;;6.55;4.95;;;32.00;52.50;;;;;;5103606;28;20048;-79
2022/08/14 11:10:42;;;;;;;5.93;4.60;;;32.10;52.20;;;;;;5086698;28;20129;-79
2022/08/14 11:13:08;;;;;;;7.47;5.00;;;32.40;51.10;;;;;;5078338;28;20047;-79
2022/08/14 11:15:34;;;;;;;6.93;5.15;;;32.60;51.20;;;;;;5076561;28;20044;-79
2022/08/14 11:18:02;;;;;;;6.20;5.03;;;32.50;50.40;;;;;;5095361;28;20031;-79
2022/08/14 11:20:29;;;;;;;6.40;4.90;;;32.50;50.80;;;;;;5094426;28;20438;-80
2022/08/14 11:22:59;;;;;;;7.22;4.90;;;32.70;49.60;;;;;;5072759;28;20402;-80
2022/08/14 11:25:29;;;;;;;6.25;4.82;;;32.60;49.20;;;;;;5095281;28;20089;-80
2022/08/14 11:27:56;;;;;;;7.03;5.13;;;32.70;49.10;;;;;;5079642;28;20036;-80
2022/08/14 11:30:27;;;;;;;6.43;4.90;;;32.60;49.30;;;;;;5071287;28;20040;-80
2022/08/14 11:32:53;;;;;;;7.57;4.80;;;32.40;49.90;;;;;;5080514;28;20040;-80
2022/08/14 11:35:21;;;;;;;6.70;5.20;;;32.60;49.50;;;;;;5065649;28;20044;-80
2022/08/14 11:38:00;;;;;;;7.03;4.70;;;32.50;49.40;;;;;;5105886;28;20040;-80
2022/08/14 11:40:29;;;;;;;6.10;4.65;;;32.40;49.90;;;;;;5063238;28;20376;-80
2022/08/14 11:42:56;;;;;;;8.50;5.20;;;32.60;49.90;;;;;;5090833;28;20043;-80
2022/08/14 11:45:23;;;;;;;6.13;4.68;;;31.90;49.90;;;;;;5083622;28;20040;-80
2022/08/14 11:47:51;;;;;;;6.70;4.63;;;31.90;50.00;;;;;;5094957;28;20063;-80
2022/08/14 11:50:23;;;;;;;7.90;5.00;;;31.50;50.70;;;;;;5085431;28;20040;-79
2022/08/14 11:52:49;;;;;;;6.65;5.20;;;31.60;50.50;;;;;;5098542;28;20490;-80
2022/08/14 11:55:15;;;;;;;8.43;5.05;;;31.40;50.90;;;;;;5099777;28;20105;-80
2022/08/14 11:57:43;;;;;;;7.53;4.93;;;31.70;51.30;;;;;;5067888;28;20032;-80
2022/08/14 12:00:12;;;;;;;7.05;4.68;;;31.90;50.30;;;;;;5084596;28;20038;-80
2022/08/14 12:02:53;;;;;;;6.20;4.43;;;32.10;50.80;;;;;;5099029;28;20471;-80
2022/08/14 12:05:32;;;;;;;;;;;32.60;49.30;;;;;;5100933;28;20115;-80
2022/08/14 12:07:59;;;;;;;6.65;5.05;;;32.70;49.80;;;;;;5077385;28;19919;-80
2022/08/14 12:10:28;;;;;;;7.35;5.05;;;32.80;48.30;;;;;;5079403;28;20032;-79
2022/08/14 12:12:55;;;;;;;7.70;4.95;;;32.70;48.90;;;;;;5080167;28;20043;-79
2022/08/14 12:15:32;;;;;;;6.45;4.75;;;32.60;48.60;;;;;;5102457;28;20040;-80
2022/08/14 12:18:00;;;;;;;7.25;4.80;;;32.40;50.00;;;;;;5100993;28;20378;-80
2022/08/14 12:20:36;;;;;;;6.88;5.03;;;32.60;49.10;;;;;;5085250;28;20043;-80
2022/08/14 12:23:04;;;;;;;6.90;5.03;;;32.80;49.20;;;;;;5077729;28;20066;-80
2022/08/14 12:25:31;;;;;;;8.75;5.00;;;32.50;48.00;;;;;;5092550;28;20055;-80
2022/08/14 12:28:00;;;;;;;6.30;4.80;;;32.60;47.90;;;;;;5093663;28;20043;-79
2022/08/14 12:30:41;;;;;;;6.60;4.75;;;32.60;48.80;;;;;;5082457;28;20036;-79
2022/08/14 12:33:21;;;;;;;6.90;5.03;;;32.70;47.70;;;;;;5080604;28;20048;-80
2022/08/14 12:35:48;;;;;;;6.90;5.10;;;32.80;47.80;;;;;;5096587;28;20507;-80
2022/08/14 12:38:15;;;;;;;8.30;5.20;;;32.80;47.50;;;;;;5092874;28;20032;-80
2022/08/14 12:40:50;;;;;;;8.40;4.80;;;32.80;47.90;;;;;;5076488;28;20036;-80
2022/08/14 12:43:18;;;;;;;5.82;4.28;;;32.90;47.80;;;;;;5087858;28;20032;-80
2022/08/14 12:45:56;;;;;;;7.07;5.22;;;33.10;45.00;;;;;;5096340;28;20063;-80
2022/08/14 12:48:23;;;;;;;7.43;5.05;;;33.10;47.10;;;;;;5084172;28;20035;-80
2022/08/14 12:50:51;;;;;;;8.27;5.55;;;33.00;46.60;;;;;;5097214;28;20112;-79
2022/08/14 12:53:18;;;;;;;8.00;5.50;;;32.80;46.70;;;;;;5097469;28;20130;-80
2022/08/14 12:55:45;;;;;;;7.35;5.88;;;32.60;46.60;;;;;;5069078;28;20550;-80
2022/08/14 12:58:11;;;;;;;8.38;5.28;;;32.40;47.50;;;;;;5061266;28;20401;-80
2022/08/14 13:00:51;;;;;;;6.90;5.03;;;32.30;48.50;;;;;;5082146;28;20105;-80
2022/08/14 13:03:25;;;;;;;7.80;5.50;;;32.30;47.40;;;;;;5085392;28;20071;-80
2022/08/14 13:05:52;;;;;;;7.93;5.43;;;32.30;47.10;;;;;;5081193;28;20062;-80